createdAt,value
2024-04-18T00:01:26.645Z,3.20
2024-04-18T00:03:53.673Z,3.20
2024-04-18T00:06:20.650Z,3.20
2024-04-18T00:08:47.481Z,3.20
2024-04-18T00:11:16.126Z,3.20
2024-04-18T00:13:43.011Z,3.20
2024-04-18T00:16:09.800Z,3.20
2024-04-18T00:18:36.719Z,3.20
2024-04-18T00:21:03.735Z,3.20
2024-04-18T00:23:30.561Z,3.20
2024-04-18T00:25:57.375Z,3.20
2024-04-18T00:28:24.214Z,3.20
2024-04-18T00:30:51.095Z,3.20
2024-04-18T00:33:17.939Z,3.20
2024-04-18T00:35:44.778Z,3.20
2024-04-18T00:38:15.279Z,3.20
2024-04-18T00:40:43.359Z,3.20
2024-04-18T00:43:10.213Z,3.20
2024-04-18T00:45:37.799Z,3.20
2024-04-18T00:48:05.450Z,3.20
2024-04-18T00:50:32.347Z,3.20
2024-04-18T00:53:00.259Z,3.20
2024-04-18T00:55:29.858Z,3.20
2024-04-18T00:57:58.004Z,3.20
2024-04-18T01:00:25.705Z,3.20
2024-04-18T01:02:52.640Z,3.20
2024-04-18T01:05:19.641Z,3.10
2024-04-18T01:07:46.512Z,3.10
2024-04-18T01:10:13.407Z,3.10
2024-04-18T01:12:40.215Z,3.20
2024-04-18T01:15:07.309Z,3.20
2024-04-18T01:17:34.222Z,3.10
2024-04-18T01:20:01.493Z,3.10
2024-04-18T01:22:28.682Z,3.10
2024-04-18T01:24:55.692Z,3.10
2024-04-18T01:27:22.557Z,3.10
2024-04-18T01:29:49.387Z,3.10
2024-04-18T01:32:16.231Z,3.10
2024-04-18T01:34:43.091Z,3.10
2024-04-18T01:37:12.373Z,3.10
2024-04-18T01:39:39.326Z,3.10
2024-04-18T01:42:06.228Z,3.10
2024-04-18T01:44:33.051Z,3.10
2024-04-18T01:46:59.887Z,3.10
2024-04-18T01:49:26.733Z,3.10
2024-04-18T01:51:53.672Z,3.20
2024-04-18T01:54:20.549Z,3.10
2024-04-18T01:56:47.505Z,3.20
2024-04-18T01:59:14.348Z,3.10
2024-04-18T02:01:41.199Z,3.10
2024-04-18T02:04:08.241Z,3.10
2024-04-18T02:06:35.120Z,3.10
2024-04-18T02:09:01.947Z,3.20
2024-04-18T02:11:28.763Z,3.20
2024-04-18T02:13:55.565Z,3.20
2024-04-18T02:16:22.391Z,3.30
2024-04-18T02:18:49.405Z,3.20
2024-04-18T02:21:16.501Z,3.30
2024-04-18T02:23:43.309Z,3.20
2024-04-18T02:26:10.204Z,3.20
2024-04-18T02:28:38.258Z,3.20
2024-04-18T02:31:05.842Z,3.30
2024-04-18T02:33:33.266Z,3.30
2024-04-18T02:36:00.230Z,3.30
2024-04-18T02:38:27.691Z,3.40
2024-04-18T02:41:08.820Z,3.30
2024-04-18T02:43:35.798Z,3.30
2024-04-18T02:46:02.672Z,3.40
2024-04-18T02:48:29.693Z,3.40
2024-04-18T02:50:56.608Z,3.40
2024-04-18T02:53:23.459Z,3.40
2024-04-18T02:55:50.352Z,3.40
2024-04-18T02:58:17.398Z,3.40
2024-04-18T03:00:44.457Z,3.30
2024-04-18T03:03:11.354Z,3.40
2024-04-18T03:05:38.189Z,3.40
2024-04-18T03:08:05.439Z,3.40
2024-04-18T03:10:32.280Z,3.40
2024-04-18T03:12:59.116Z,3.40
2024-04-18T03:15:26.030Z,3.40
2024-04-18T03:17:54.626Z,3.40
2024-04-18T03:20:22.100Z,3.40
2024-04-18T03:22:49.406Z,3.30
2024-04-18T03:25:16.885Z,3.40
2024-04-18T03:27:43.748Z,3.40
2024-04-18T03:30:10.929Z,3.40
2024-04-18T03:32:38.393Z,3.40
2024-04-18T03:35:05.885Z,3.50
2024-04-18T03:37:34.388Z,3.50
2024-04-18T03:40:02.425Z,3.40
2024-04-18T03:42:29.296Z,3.40
2024-04-18T03:44:56.230Z,3.40
2024-04-18T03:47:23.227Z,3.40
2024-04-18T03:49:50.222Z,3.50
2024-04-18T03:52:17.088Z,3.50
2024-04-18T03:54:55.983Z,3.50
2024-04-18T03:57:28.724Z,3.40
2024-04-18T03:59:55.602Z,3.50
2024-04-18T04:02:22.457Z,3.50
2024-04-18T04:04:51.432Z,3.50
2024-04-18T04:07:18.533Z,3.50
2024-04-18T04:09:45.479Z,3.50
2024-04-18T04:12:12.534Z,3.50
2024-04-18T04:14:39.394Z,3.50
2024-04-18T04:17:06.585Z,3.50
2024-04-18T04:19:33.483Z,3.50
2024-04-18T04:22:00.734Z,3.50
2024-04-18T04:24:27.638Z,3.60
2024-04-18T04:26:54.653Z,3.60
2024-04-18T04:29:21.979Z,3.70
2024-04-18T04:31:48.944Z,3.40
2024-04-18T04:34:15.867Z,3.30
2024-04-18T04:36:42.769Z,3.20
2024-04-18T04:39:10.066Z,3.10
2024-04-18T04:41:36.883Z,3.00
2024-04-18T04:44:03.659Z,3.00
2024-04-18T04:46:30.744Z,3.00
2024-04-18T04:48:57.722Z,2.90
2024-04-18T04:51:24.643Z,2.90
2024-04-18T04:53:54.205Z,2.90
2024-04-18T04:56:21.460Z,2.90
2024-04-18T04:58:48.516Z,2.90
2024-04-18T05:01:15.465Z,2.90
2024-04-18T05:03:42.431Z,3.00
2024-04-18T05:06:09.281Z,3.00
2024-04-18T05:08:36.153Z,3.00
2024-04-18T05:11:03.414Z,3.10
2024-04-18T05:13:30.295Z,3.20
2024-04-18T05:15:57.179Z,3.20
2024-04-18T05:18:24.434Z,3.20
2024-04-18T05:20:51.281Z,3.20
2024-04-18T05:23:18.385Z,3.30
2024-04-18T05:25:45.201Z,3.40
2024-04-18T05:28:14.316Z,3.40
2024-04-18T05:31:02.586Z,3.60
2024-04-18T05:33:30.461Z,3.70
2024-04-18T05:35:57.863Z,3.80
2024-04-18T05:38:24.966Z,3.80
2024-04-18T05:40:51.995Z,3.90
2024-04-18T05:43:19.270Z,3.90
2024-04-18T05:45:47.164Z,3.90
2024-04-18T05:48:14.133Z,3.90
2024-04-18T05:50:42.336Z,4.00
2024-04-18T05:53:09.232Z,4.00
2024-04-18T05:55:36.197Z,4.10
2024-04-18T05:58:03.433Z,4.00
2024-04-18T06:00:30.332Z,3.90
2024-04-18T06:02:57.278Z,3.80
2024-04-18T06:05:24.129Z,3.80
2024-04-18T06:07:50.955Z,3.60
2024-04-18T06:10:18.682Z,3.60
2024-04-18T06:12:45.580Z,3.70
2024-04-18T06:15:12.389Z,3.60
2024-04-18T06:17:39.248Z,3.60
2024-04-18T06:20:06.852Z,3.40
2024-04-18T06:22:33.822Z,3.10
2024-04-18T06:25:00.798Z,2.90
2024-04-18T06:27:27.749Z,2.90
2024-04-18T06:29:54.653Z,2.90
2024-04-18T06:32:22.082Z,3.10
2024-04-18T06:34:48.954Z,3.20
2024-04-18T06:37:16.056Z,3.30
2024-04-18T06:39:43.126Z,3.40
2024-04-18T06:42:09.975Z,3.40
2024-04-18T06:44:37.439Z,3.50
2024-04-18T06:47:04.519Z,3.50
2024-04-18T06:49:31.391Z,3.50
2024-04-18T06:51:58.297Z,3.50
2024-04-18T06:54:25.815Z,3.60
2024-04-18T06:56:52.744Z,3.70
2024-04-18T06:59:20.576Z,3.70
2024-04-18T07:01:48.195Z,3.60
2024-04-18T07:04:15.170Z,3.70
2024-04-18T07:06:42.123Z,3.80
2024-04-18T07:09:08.994Z,3.80
2024-04-18T07:11:35.891Z,4.00
2024-04-18T07:14:02.885Z,4.20
2024-04-18T07:16:30.093Z,4.30
2024-04-18T07:18:57.266Z,4.50
2024-04-18T07:21:24.348Z,4.60
2024-04-18T07:23:51.215Z,4.70
2024-04-18T07:26:18.650Z,4.90
2024-04-18T07:28:45.454Z,4.80
2024-04-18T07:31:12.323Z,4.80
2024-04-18T07:33:39.317Z,4.80
2024-04-18T07:36:06.380Z,4.80
2024-04-18T07:38:33.823Z,4.70
2024-04-18T07:41:00.709Z,4.50
2024-04-18T07:43:27.600Z,4.50
2024-04-18T07:45:54.638Z,4.50
2024-04-18T07:48:21.663Z,4.50
2024-04-18T07:50:49.801Z,4.40
2024-04-18T07:53:16.678Z,4.50
2024-04-18T07:55:43.583Z,4.50
2024-04-18T07:58:11.222Z,4.70
2024-04-18T08:00:39.636Z,4.90
2024-04-18T08:03:08.918Z,5.20
2024-04-18T08:05:39.112Z,5.50
2024-04-18T08:08:10.395Z,5.60
2024-04-18T08:10:52.911Z,5.80
2024-04-18T08:13:30.260Z,5.60
2024-04-18T08:16:02.749Z,5.30
2024-04-18T08:18:30.067Z,5.10
2024-04-18T08:21:00.434Z,5.10
2024-04-18T08:23:27.585Z,5.10
2024-04-18T08:25:54.492Z,5.20
2024-04-18T08:28:21.474Z,5.20
2024-04-18T08:30:48.360Z,5.20
2024-04-18T08:33:15.359Z,5.20
2024-04-18T08:35:45.098Z,5.30
2024-04-18T08:38:13.449Z,5.20
2024-04-18T08:40:45.610Z,5.40
2024-04-18T08:43:13.427Z,5.50
2024-04-18T08:45:42.182Z,5.70
2024-04-18T08:48:11.908Z,5.70
2024-04-18T08:50:42.147Z,5.70
2024-04-18T08:53:10.997Z,6.30
2024-04-18T08:55:40.403Z,6.70
2024-04-18T08:58:10.541Z,7.10
2024-04-18T09:00:43.631Z,6.80
2024-04-18T09:03:12.115Z,6.60
2024-04-18T09:05:41.662Z,6.00
2024-04-18T09:08:10.917Z,5.60
2024-04-18T09:10:38.000Z,5.20
2024-04-18T09:13:07.491Z,5.20
2024-04-18T09:15:34.766Z,5.40
2024-04-18T09:18:10.958Z,5.40
2024-04-18T09:20:39.712Z,5.40
2024-04-18T09:23:07.568Z,5.40
2024-04-18T09:25:36.377Z,5.40
2024-04-18T09:28:05.850Z,5.50
2024-04-18T09:30:32.742Z,5.50
2024-04-18T09:33:05.264Z,5.40
2024-04-18T09:35:35.838Z,5.50
2024-04-18T09:38:09.294Z,5.50
2024-04-18T09:40:44.353Z,5.60
2024-04-18T09:43:31.692Z,5.80
2024-04-18T09:46:04.227Z,6.10
2024-04-18T09:48:32.394Z,6.40
2024-04-18T09:51:00.822Z,6.70
2024-04-18T09:53:29.306Z,6.70
2024-04-18T09:55:58.054Z,6.50
2024-04-18T09:58:27.530Z,6.20
2024-04-18T10:00:56.162Z,6.00
2024-04-18T10:03:24.200Z,5.90
2024-04-18T10:05:54.603Z,5.80
2024-04-18T10:08:31.193Z,5.80
2024-04-18T10:10:58.783Z,5.70
2024-04-18T10:13:26.697Z,5.80
2024-04-18T10:16:13.856Z,5.60
2024-04-18T10:18:41.815Z,5.30
2024-04-18T10:21:33.458Z,4.80
2024-04-18T10:24:11.087Z,4.60
2024-04-18T10:26:38.978Z,4.40
2024-04-18T10:29:21.363Z,4.30
2024-04-18T10:31:48.234Z,4.20
2024-04-18T10:34:15.549Z,4.20
2024-04-18T10:36:44.613Z,4.30
2024-04-18T10:39:27.056Z,4.50
2024-04-18T10:42:00.554Z,4.70
2024-04-18T10:44:27.971Z,4.80
2024-04-18T10:46:56.218Z,5.00
2024-04-18T10:49:23.971Z,5.10
2024-04-18T10:51:51.449Z,5.20
2024-04-18T10:54:18.763Z,5.10
2024-04-18T10:56:45.825Z,5.20
2024-04-18T10:59:12.915Z,5.30
2024-04-18T11:01:40.743Z,5.20
2024-04-18T11:04:07.765Z,5.20
2024-04-18T11:06:38.074Z,5.30
2024-04-18T11:09:05.096Z,5.20
2024-04-18T11:11:34.720Z,5.30
2024-04-18T11:14:02.134Z,5.30
2024-04-18T11:16:28.962Z,5.20
2024-04-18T11:18:56.381Z,5.30
2024-04-18T11:21:25.596Z,5.30
2024-04-18T11:23:53.247Z,5.30
2024-04-18T11:26:20.776Z,5.30
2024-04-18T11:28:56.261Z,5.30
2024-04-18T11:31:23.461Z,5.40
2024-04-18T11:33:50.476Z,5.70
2024-04-18T11:36:18.036Z,5.70
2024-04-18T11:38:44.953Z,5.70
2024-04-18T11:41:12.369Z,5.80
2024-04-18T11:43:39.288Z,6.00
2024-04-18T11:46:06.213Z,6.20
2024-04-18T11:48:33.267Z,6.40
2024-04-18T11:51:00.229Z,6.70
2024-04-18T11:53:27.035Z,7.10
2024-04-18T11:55:55.053Z,7.30
2024-04-18T11:58:23.085Z,7.50
2024-04-18T12:00:49.916Z,7.90
2024-04-18T12:03:16.860Z,8.00
2024-04-18T12:05:43.792Z,8.10
2024-04-18T12:08:10.590Z,8.30
2024-04-18T12:10:37.448Z,8.30
2024-04-18T12:13:04.687Z,8.10
2024-04-18T12:15:34.457Z,7.90
2024-04-18T12:18:03.348Z,7.80
2024-04-18T12:20:30.394Z,7.80
2024-04-18T12:22:57.349Z,7.50
2024-04-18T12:25:24.281Z,7.50
2024-04-18T12:27:51.251Z,7.50
2024-04-18T12:30:18.160Z,7.40
2024-04-18T12:32:45.051Z,7.40
2024-04-18T12:35:11.992Z,7.70
2024-04-18T12:37:38.855Z,8.00
2024-04-18T12:40:06.605Z,8.30
2024-04-18T12:42:35.240Z,8.30
2024-04-18T12:45:02.384Z,8.60
2024-04-18T12:47:29.455Z,8.30
2024-04-18T12:49:56.433Z,8.40
2024-04-18T12:52:23.417Z,8.80
2024-04-18T12:54:50.349Z,8.90
2024-04-18T12:57:17.217Z,9.20
2024-04-18T12:59:44.264Z,9.50
2024-04-18T13:02:13.139Z,9.80
2024-04-18T13:04:40.090Z,9.60
2024-04-18T13:07:07.240Z,9.60
2024-04-18T13:09:34.552Z,9.50
2024-04-18T13:12:05.939Z,9.50
2024-04-18T13:14:32.915Z,9.80
2024-04-18T13:17:01.435Z,9.90
2024-04-18T13:19:28.238Z,10.00
2024-04-18T13:21:57.429Z,9.80
2024-04-18T13:24:25.767Z,9.60
2024-04-18T13:26:53.711Z,9.50
2024-04-18T13:29:21.402Z,9.40
2024-04-18T13:31:48.715Z,9.10
2024-04-18T13:34:15.582Z,8.80
2024-04-18T13:36:42.582Z,8.70
2024-04-18T13:39:10.075Z,8.50
2024-04-18T13:41:42.022Z,8.40
2024-04-18T13:44:08.835Z,8.30
2024-04-18T13:46:35.831Z,8.20
2024-04-18T13:49:02.887Z,8.10
2024-04-18T13:51:30.093Z,8.00
2024-04-18T13:53:57.476Z,7.80
2024-04-18T13:56:27.632Z,7.70
2024-04-18T13:58:54.470Z,7.50
2024-04-18T14:01:21.401Z,7.40
2024-04-18T14:03:48.301Z,7.40
2024-04-18T14:06:15.240Z,7.50
2024-04-18T14:08:42.345Z,7.60
2024-04-18T14:11:09.353Z,7.70
2024-04-18T14:13:36.187Z,7.70
2024-04-18T14:16:21.864Z,7.70
2024-04-18T14:18:52.094Z,7.70
2024-04-18T14:21:20.012Z,7.40
2024-04-18T14:23:46.907Z,6.90
2024-04-18T14:26:13.769Z,6.50
2024-04-18T14:28:40.593Z,6.10
2024-04-18T14:31:07.457Z,6.00
2024-04-18T14:33:35.040Z,6.10
2024-04-18T14:36:02.218Z,6.30
2024-04-18T14:38:29.832Z,6.50
2024-04-18T14:41:05.572Z,6.70
2024-04-18T14:43:38.093Z,6.80
2024-04-18T14:46:05.248Z,6.80
2024-04-18T14:48:34.738Z,6.50
2024-04-18T14:51:01.832Z,6.30
2024-04-18T14:53:28.703Z,5.80
2024-04-18T14:55:55.751Z,5.60
2024-04-18T14:58:22.738Z,5.50
2024-04-18T15:00:52.248Z,5.50
2024-04-18T15:03:19.867Z,5.50
2024-04-18T15:05:54.458Z,5.50
2024-04-18T15:08:21.613Z,5.70
2024-04-18T15:10:48.625Z,5.70
2024-04-18T15:13:15.595Z,5.80
2024-04-18T15:15:42.920Z,6.00
2024-04-18T15:18:10.033Z,6.00
2024-04-18T15:20:37.006Z,6.00
2024-04-18T15:23:04.199Z,6.00
2024-04-18T15:25:31.069Z,6.00
2024-04-18T15:27:58.060Z,6.00
2024-04-18T15:30:25.048Z,6.00
2024-04-18T15:32:52.486Z,5.90
2024-04-18T15:35:19.304Z,5.90
2024-04-18T15:37:46.158Z,6.00
2024-04-18T15:40:15.903Z,6.00
2024-04-18T15:42:44.474Z,6.00
2024-04-18T15:45:11.411Z,6.00
2024-04-18T15:47:38.541Z,6.20
2024-04-18T15:50:05.709Z,6.30
2024-04-18T15:52:34.240Z,6.40
2024-04-18T15:55:09.038Z,6.60
2024-04-18T15:57:42.910Z,7.00
2024-04-18T16:00:11.151Z,7.20
2024-04-18T16:02:38.303Z,7.50
2024-04-18T16:05:05.712Z,7.60
2024-04-18T16:07:32.614Z,7.70
2024-04-18T16:09:59.994Z,7.90
2024-04-18T16:12:27.428Z,7.70
2024-04-18T16:14:54.541Z,7.50
2024-04-18T16:17:21.520Z,7.30
2024-04-18T16:19:49.636Z,7.00
2024-04-18T16:22:16.818Z,6.70
2024-04-18T16:24:43.807Z,6.20
2024-04-18T16:27:10.756Z,5.10
2024-04-18T16:29:37.692Z,4.40
2024-04-18T16:32:04.888Z,4.00
2024-04-18T16:34:31.865Z,3.90
2024-04-18T16:37:09.418Z,3.90
2024-04-18T16:39:40.210Z,3.90
2024-04-18T16:42:07.681Z,4.00
2024-04-18T16:44:34.594Z,4.10
2024-04-18T16:47:01.453Z,4.10
2024-04-18T16:49:28.502Z,4.10
2024-04-18T16:51:55.521Z,4.20
2024-04-18T16:54:22.426Z,4.10
2024-04-18T16:56:49.365Z,4.20
2024-04-18T16:59:16.332Z,4.20
2024-04-18T17:01:43.271Z,4.30
2024-04-18T17:04:10.284Z,4.30
2024-04-18T17:06:45.831Z,4.30
2024-04-18T17:09:20.906Z,4.30
2024-04-18T17:11:48.094Z,4.40
2024-04-18T17:14:15.840Z,4.40
2024-04-18T17:16:42.644Z,4.40
2024-04-18T17:19:09.567Z,4.40
2024-04-18T17:21:36.864Z,4.30
2024-04-18T17:24:04.056Z,4.40
2024-04-18T17:26:31.402Z,4.50
2024-04-18T17:28:58.246Z,4.50
2024-04-18T17:31:25.165Z,4.40
2024-04-18T17:33:52.055Z,4.40
2024-04-18T17:36:19.159Z,4.30
2024-04-18T17:38:50.375Z,4.30
2024-04-18T17:41:17.301Z,4.30
2024-04-18T17:43:47.124Z,4.30
2024-04-18T17:46:17.346Z,4.20
2024-04-18T17:48:45.617Z,4.20
2024-04-18T17:51:12.573Z,4.20
2024-04-18T17:53:39.787Z,4.20
2024-04-18T17:56:06.761Z,4.10
2024-04-18T17:58:33.662Z,4.10
2024-04-18T18:01:00.722Z,4.20
2024-04-18T18:03:27.659Z,4.20
2024-04-18T18:05:55.135Z,4.20
2024-04-18T18:08:22.054Z,4.30
2024-04-18T18:10:48.969Z,4.30
2024-04-18T18:13:18.923Z,4.30
2024-04-18T18:15:46.229Z,4.30
2024-04-18T18:18:17.376Z,4.30
2024-04-18T18:20:44.567Z,4.30
2024-04-18T18:23:14.552Z,4.30
2024-04-18T18:25:43.437Z,4.30
2024-04-18T18:28:10.273Z,4.20
2024-04-18T18:30:39.322Z,4.30
2024-04-18T18:33:06.460Z,4.30
2024-04-18T18:35:33.340Z,4.30
2024-04-18T18:38:00.268Z,4.20
2024-04-18T18:40:27.262Z,4.20
2024-04-18T18:42:54.058Z,4.20
2024-04-18T18:45:20.961Z,4.30
2024-04-18T18:47:47.872Z,4.20
2024-04-18T18:50:14.845Z,4.20
2024-04-18T18:52:44.526Z,4.10
2024-04-18T18:55:11.363Z,4.10
2024-04-18T18:57:38.226Z,4.20
2024-04-18T19:00:05.494Z,4.20
2024-04-18T19:02:32.496Z,4.20
2024-04-18T19:04:59.389Z,4.00
2024-04-18T19:07:46.082Z,3.90
2024-04-18T19:10:13.209Z,3.90
2024-04-18T19:12:40.195Z,3.80
2024-04-18T19:15:07.386Z,3.70
2024-04-18T19:17:37.837Z,3.70
2024-04-18T19:20:05.086Z,3.80
2024-04-18T19:22:32.057Z,3.80
2024-04-18T19:24:58.934Z,3.80
2024-04-18T19:27:25.810Z,3.80
2024-04-18T19:29:52.715Z,3.70
2024-04-18T19:32:20.676Z,3.60
2024-04-18T19:34:47.596Z,3.60
2024-04-18T19:37:14.458Z,3.60
2024-04-18T19:39:41.455Z,3.60
2024-04-18T19:42:08.839Z,3.70
2024-04-18T19:44:36.020Z,3.60
2024-04-18T19:47:04.374Z,3.60
2024-04-18T19:49:35.727Z,3.60
2024-04-18T19:52:06.155Z,3.50
2024-04-18T19:54:52.166Z,3.50
2024-04-18T19:57:25.024Z,3.60
2024-04-18T19:59:53.976Z,3.70
2024-04-18T20:02:21.000Z,3.70
2024-04-18T20:04:51.289Z,3.70
2024-04-18T20:07:18.167Z,3.80
2024-04-18T20:09:45.016Z,3.80
2024-04-18T20:12:11.939Z,3.80
2024-04-18T20:14:38.816Z,3.80
2024-04-18T20:17:05.860Z,3.80
2024-04-18T20:19:32.728Z,3.90
2024-04-18T20:21:59.607Z,3.80
2024-04-18T20:24:28.058Z,3.80
2024-04-18T20:26:56.192Z,3.80
2024-04-18T20:29:23.120Z,3.80
2024-04-18T20:31:49.959Z,3.80
2024-04-18T20:34:16.882Z,3.70
2024-04-18T20:36:43.777Z,3.80
2024-04-18T20:39:10.663Z,3.80
2024-04-18T20:41:37.608Z,3.80
2024-04-18T20:44:04.577Z,3.80
2024-04-18T20:46:31.465Z,3.80
2024-04-18T20:48:58.459Z,3.80
2024-04-18T20:51:25.500Z,3.80
2024-04-18T20:53:52.300Z,3.70
2024-04-18T20:56:19.129Z,3.70
2024-04-18T20:58:46.234Z,3.60
2024-04-18T21:01:13.318Z,3.60
2024-04-18T21:03:40.576Z,3.60
2024-04-18T21:06:07.699Z,3.60
2024-04-18T21:08:34.936Z,3.60
2024-04-18T21:11:02.022Z,3.60
2024-04-18T21:13:29.027Z,3.50
2024-04-18T21:16:02.390Z,3.50
2024-04-18T21:18:29.784Z,3.40
2024-04-18T21:20:57.458Z,3.30
2024-04-18T21:23:24.492Z,3.30
2024-04-18T21:25:51.637Z,3.30
2024-04-18T21:28:18.808Z,3.20
2024-04-18T21:30:45.853Z,3.20
2024-04-18T21:33:12.944Z,3.10
2024-04-18T21:35:39.956Z,3.20
2024-04-18T21:38:06.913Z,3.10
2024-04-18T21:40:34.177Z,3.10
2024-04-18T21:43:04.228Z,3.00
2024-04-18T21:45:32.905Z,3.00
2024-04-18T21:48:00.787Z,3.00
2024-04-18T21:50:27.885Z,2.90
2024-04-18T21:52:54.853Z,2.90
2024-04-18T21:55:21.837Z,2.90
2024-04-18T21:57:52.306Z,2.90
2024-04-18T22:00:19.348Z,2.90
2024-04-18T22:02:52.467Z,2.80
2024-04-18T22:05:19.890Z,2.80
2024-04-18T22:07:46.819Z,2.80
2024-04-18T22:10:13.834Z,2.90
2024-04-18T22:12:41.071Z,3.00
2024-04-18T22:15:08.284Z,3.10
2024-04-18T22:17:35.383Z,3.10
2024-04-18T22:20:02.655Z,3.10
2024-04-18T22:22:29.558Z,3.00
2024-04-18T22:24:56.551Z,3.10
2024-04-18T22:27:23.578Z,3.20
2024-04-18T22:29:50.723Z,3.30
2024-04-18T22:32:17.669Z,3.40
2024-04-18T22:34:47.507Z,3.50
2024-04-18T22:37:16.680Z,3.60
2024-04-18T22:39:43.657Z,3.40
2024-04-18T22:42:11.911Z,3.30
2024-04-18T22:44:40.677Z,3.20
2024-04-18T22:47:11.195Z,3.10
2024-04-18T22:49:38.292Z,3.10
2024-04-18T22:52:05.743Z,3.00
2024-04-18T22:54:32.725Z,3.00
2024-04-18T22:57:00.166Z,2.90
2024-04-18T22:59:27.235Z,2.90
2024-04-18T23:01:54.248Z,2.90
2024-04-18T23:04:21.352Z,2.90
2024-04-18T23:06:48.377Z,2.90
2024-04-18T23:09:15.394Z,2.90
2024-04-18T23:11:42.336Z,2.90
2024-04-18T23:14:09.294Z,2.90
2024-04-18T23:16:36.291Z,2.90
2024-04-18T23:19:03.290Z,2.80
2024-04-18T23:21:30.287Z,2.80
2024-04-18T23:23:57.238Z,2.80
2024-04-18T23:26:25.640Z,2.80
2024-04-18T23:28:52.601Z,2.80
2024-04-18T23:31:19.544Z,2.80
2024-04-18T23:33:46.580Z,2.80
2024-04-18T23:36:14.283Z,2.80
2024-04-18T23:38:41.234Z,2.80
2024-04-18T23:41:08.214Z,2.80
2024-04-18T23:43:35.104Z,2.70
2024-04-18T23:46:02.031Z,2.70
2024-04-18T23:48:29.243Z,2.80
2024-04-18T23:50:56.251Z,2.80
2024-04-18T23:53:23.242Z,2.80
2024-04-18T23:55:50.205Z,2.80
2024-04-18T23:58:17.129Z,2.80
